Terminal Aerodrome Forecast
Issued by NWS Melbourne, FL

Home | Current Version | Previous Version | Text Only | Print | Product List | Glossary On
Versions: 1 2 3 4 5 6 7 8 9 10 11 12 13 14 15 16 17 18 19 20 21 22 23 24
204
FTUS42 KMLB 231459 AAA
TAFMCO
TAF AMD
KMCO 231459Z 2315/2418 12008KT P6SM SCT025
      TEMPO 2315/2317 -SHRA BKN025
     FM231800 11010KT P6SM FEW030 SCT040
     FM240000 10006KT P6SM FEW040
     FM241500 13008KT P6SM SCT035=

USA.gov is the U.S. government's official web portal to all federal, state and local government web resources and services.